Time;durP1;ratioP1;P1;durP2;ratioP2;P2;SDS_P1;SDS_P2;PMS_P1;PMS_P2;Temp;Humidity;BMP_temperature;BMP_pressure;BME280_temperature;BME280_humidity;BME280_pressure;Samples;Min_cycle;Max_cycle;Signal;HPM_P1;HPM_P2
2023/03/15 00:01:39;;;;;;;;;;;;;;;3.66;51.05;92447.81;5028701;28;19913;-38
2023/03/15 00:04:06;;;;;;;;;;;;;;;3.39;51.63;92449.84;5029198;28;20059;-38
2023/03/15 00:06:34;;;;;;;;;;;;;;;3.13;54.00;92446.41;5028669;28;19952;-38
2023/03/15 00:09:00;;;;;;;;;;;;;;;3.18;54.28;92453.75;5028770;28;19951;-38
2023/03/15 00:11:26;;;;;;;;;;;;;;;2.94;55.71;92455.44;5028813;28;19917;-38
2023/03/15 00:13:51;;;;;;;;;;;;;;;2.92;53.70;92452.47;5028794;28;19921;-38
2023/03/15 00:16:17;;;;;;;;;;;;;;;2.83;55.97;92447.47;5028770;28;19927;-38
2023/03/15 00:18:43;;;;;;;;;;;;;;;2.82;54.84;92451.44;5028933;28;19928;-38
2023/03/15 00:21:09;;;;;;;;;;;;;;;2.91;54.56;92448.28;5028742;28;20016;-38
2023/03/15 00:23:34;;;;;;;;;;;;;;;2.68;56.33;92441.78;5028785;28;20004;-38
2023/03/15 00:25:59;;;;;;;;;;;;;;;2.48;56.89;92444.34;5028821;28;19920;-38
2023/03/15 00:28:25;;;;;;;;;;;;;;;2.56;56.90;92432.31;5028984;28;19913;-38
2023/03/15 00:31:01;;;;;;;;;;;;;;;2.58;56.17;92434.53;5028209;28;20042;-38
2023/03/15 00:33:26;;;;;;;;;;;;;;;2.65;53.79;92434.63;5035121;28;19968;-38
2023/03/15 00:35:52;;;;;;;;;;;;;;;2.68;56.06;92435.59;5048713;28;19985;-38
2023/03/15 00:38:17;;;;;;;;;;;;;;;2.55;56.39;92421.94;5048458;28;19953;-38
2023/03/15 00:40:43;;;;;;;;;;;;;;;2.44;56.06;92424.84;5050370;28;19937;-38
2023/03/15 00:43:08;;;;;;;;;;;;;;;2.30;57.97;92416.66;5052433;28;19930;-38
2023/03/15 00:45:33;;;;;;;;;;;;;;;2.34;58.26;92419.06;5035417;28;19941;-38
2023/03/15 00:47:58;;;;;;;;;;;;;;;2.35;57.26;92412.38;5032213;28;19936;-38
2023/03/15 00:50:24;;;;;;;;;;;;;;;2.33;56.16;92411.44;5032436;28;19939;-38
2023/03/15 00:52:49;;;;;;;;;;;;;;;2.29;55.04;92409.03;5031953;28;20444;-38
2023/03/15 00:55:15;;;;;;;;;;;;;;;2.32;56.87;92396.34;5032060;28;19944;-38
2023/03/15 00:57:41;;;;;;;;;;;;;;;2.11;58.85;92401.63;5051036;28;19939;-38
2023/03/15 01:00:08;;;;;;;;;;;;;;;2.08;59.73;92400.69;5051586;28;19968;-38
2023/03/15 01:02:36;;;;;;;;;;;;;;;2.02;59.23;92399.28;5051971;28;19936;-38
2023/03/15 01:05:01;;;;;;;;;;;;;;;1.95;59.93;92391.75;5051714;28;19960;-38
2023/03/15 01:07:26;;;;;;;;;;;;;;;1.75;61.19;92398.50;5038481;28;19936;-38
2023/03/15 01:09:52;;;;;;;;;;;;;;;1.78;61.22;92396.69;5031788;28;19945;-38
2023/03/15 01:12:17;;;;;;;;;;;;;;;1.94;59.98;92398.44;5031789;28;19939;-38
2023/03/15 01:14:42;;;;;;;;;;;;;;;1.91;59.87;92391.31;5031311;28;20424;-38
2023/03/15 01:17:08;;;;;;;;;;;;;;;1.84;60.57;92379.03;5031601;28;19939;-38
2023/03/15 01:19:33;;;;;;;;;;;;;;;1.77;61.16;92385.09;5031621;28;19955;-38
2023/03/15 01:21:58;;;;;;;;;;;;;;;1.49;61.39;92382.75;5031249;28;19955;-38
2023/03/15 01:24:23;;;;;;;;;;;;;;;1.31;62.63;92385.50;5031721;28;19934;-38
2023/03/15 01:26:49;;;;;;;;;;;;;;;1.50;62.73;92380.78;5031437;28;19967;-38
2023/03/15 01:29:16;;;;;;;;;;;;;;;1.44;62.06;92382.84;5031724;28;19939;-38
2023/03/15 01:31:41;;;;;;;;;;;;;;;1.41;62.58;92378.44;5031243;28;19939;-38
2023/03/15 01:34:08;;;;;;;;;;;;;;;1.43;63.60;92381.38;5043244;28;19941;-38
2023/03/15 01:36:33;;;;;;;;;;;;;;;1.30;62.32;92386.78;5050965;28;19981;-38
2023/03/15 01:38:58;;;;;;;;;;;;;;;1.31;63.70;92383.53;5051178;28;20053;-38
2023/03/15 01:41:24;;;;;;;;;;;;;;;1.16;64.24;92385.22;5037840;28;20418;-38
2023/03/15 01:43:50;;;;;;;;;;;;;;;0.99;64.18;92368.38;5031352;28;20040;-37
2023/03/15 01:46:25;;;;;;;;;;;;;;;1.22;63.26;92366.84;5031310;28;20021;-38
2023/03/15 01:48:59;;;;;;;;;;;;;;;1.42;61.88;92360.88;5030661;28;20493;-38
2023/03/15 01:51:25;;;;;;;;;;;;;;;1.14;64.07;92374.88;5030565;28;19933;-38
2023/03/15 01:54:05;;;;;;;;;;;;;;;1.02;66.57;92367.38;5030583;28;20359;-38
2023/03/15 01:56:30;;;;;;;;;;;;;;;1.13;63.58;92362.50;5039565;28;20503;-38
2023/03/15 01:58:56;;;;;;;;;;;;;;;1.18;63.24;92358.25;5046218;28;20108;-38
2023/03/15 02:01:21;;;;;;;;;;;;;;;1.04;64.46;92359.44;5031046;28;19982;-38
2023/03/15 02:03:48;;;;;;;;;;;;;;;0.97;64.60;92360.75;5046330;28;19946;-38
2023/03/15 02:06:16;;;;;;;;;;;;;;;0.98;64.83;92353.31;5030587;28;20413;-38
2023/03/15 02:08:42;;;;;;;;;;;;;;;1.09;65.02;92358.59;5045469;28;20415;-38
2023/03/15 02:11:08;;;;;;;;;;;;;;;1.13;65.01;92364.47;5045080;28;19948;-38
2023/03/15 02:13:33;;;;;;;;;;;;;;;1.15;64.98;92356.56;5030461;28;19943;-38
2023/03/15 02:15:58;;;;;;;;;;;;;;;1.03;65.04;92374.25;5030672;28;19939;-38
2023/03/15 02:18:24;;;;;;;;;;;;;;;0.85;66.42;92367.56;5046205;28;19949;-38
2023/03/15 02:20:56;;;;;;;;;;;;;;;0.90;66.46;92369.47;5030491;28;19993;-38
2023/03/15 02:23:21;;;;;;;;;;;;;;;1.16;65.96;92366.94;5030465;28;19936;-38
2023/03/15 02:25:50;;;;;;;;;;;;;;;1.20;64.68;92363.91;5046168;28;20470;-38
2023/03/15 02:28:15;;;;;;;;;;;;;;;0.78;67.09;92354.53;5030238;28;20035;-38
2023/03/15 02:30:41;;;;;;;;;;;;;;;0.66;67.79;92358.66;5045738;28;20111;-38
2023/03/15 02:33:08;;;;;;;;;;;;;;;0.71;67.48;92355.16;5033514;28;19979;-38
2023/03/15 02:35:33;;;;;;;;;;;;;;;0.73;67.04;92339.81;5050279;28;19955;-37
2023/03/15 02:37:58;;;;;;;;;;;;;;;0.77;68.57;92344.94;5033911;28;19964;-38
2023/03/15 02:40:26;;;;;;;;;;;;;;;0.97;67.45;92330.88;5029941;28;19943;-38
2023/03/15 02:42:52;;;;;;;;;;;;;;;1.05;67.64;92331.75;5030107;28;19962;-38
2023/03/15 02:45:17;;;;;;;;;;;;;;;1.14;67.60;92325.94;5029898;28;20022;-38
2023/03/15 02:47:43;;;;;;;;;;;;;;;1.24;66.81;92326.28;5045241;28;20014;-38
2023/03/15 02:50:09;;;;;;;;;;;;;;;1.22;65.83;92315.19;5029808;28;19939;-38
2023/03/15 02:52:34;;;;;;;;;;;;;;;1.17;65.89;92311.28;5029625;28;19929;-38
2023/03/15 02:55:01;;;;;;;;;;;;;;;1.14;65.51;92306.16;5035475;28;19932;-38
2023/03/15 02:57:26;;;;;;;;;;;;;;;1.12;66.09;92312.13;5032563;28;19979;-38
2023/03/15 02:59:53;;;;;;;;;;;;;;;0.98;67.84;92331.56;5029444;28;19973;-38
2023/03/15 03:02:19;;;;;;;;;;;;;;;1.19;67.77;92329.81;5029848;28;20079;-38
2023/03/15 03:04:44;;;;;;;;;;;;;;;1.16;66.08;92331.59;5029265;28;20036;-38
2023/03/15 03:07:09;;;;;;;;;;;;;;;1.16;65.99;92325.41;5029786;28;19933;-37
2023/03/15 03:09:35;;;;;;;;;;;;;;;0.81;66.68;92312.78;5029327;28;19938;-37
2023/03/15 03:12:00;;;;;;;;;;;;;;;0.75;67.47;92303.97;5029444;28;19979;-38
2023/03/15 03:14:25;;;;;;;;;;;;;;;0.61;68.02;92292.28;5029679;28;19966;-38
2023/03/15 03:16:50;;;;;;;;;;;;;;;0.70;69.80;92285.75;5029690;28;20657;-37
2023/03/15 03:19:16;;;;;;;;;;;;;;;0.66;70.00;92305.06;5029425;28;19960;-38
2023/03/15 03:21:44;;;;;;;;;;;;;;;0.82;70.33;92311.53;5029638;28;19967;-38
2023/03/15 03:24:10;;;;;;;;;;;;;;;0.83;69.02;92320.41;5029899;28;19943;-38
2023/03/15 03:26:36;;;;;;;;;;;;;;;1.10;66.51;92309.19;5029617;28;19931;-38
2023/03/15 03:29:02;;;;;;;;;;;;;;;0.76;68.97;92297.28;5029585;28;20013;-38
2023/03/15 03:31:27;;;;;;;;;;;;;;;0.68;68.77;92291.72;5029385;28;20392;-38
2023/03/15 03:33:52;;;;;;;;;;;;;;;0.53;69.88;92298.81;5039232;28;19941;-38
2023/03/15 03:36:18;;;;;;;;;;;;;;;0.65;69.74;92292.72;5064793;28;19990;-38
2023/03/15 03:38:43;;;;;;;;;;;;;;;0.62;68.75;92285.63;5049411;28;19954;-38
2023/03/15 03:41:09;;;;;;;;;;;;;;;0.50;69.83;92286.25;5049272;28;20019;-37
2023/03/15 03:43:34;;;;;;;;;;;;;;;0.40;70.33;92277.00;5065004;28;19941;-37
2023/03/15 03:46:00;;;;;;;;;;;;;;;0.43;70.83;92275.97;5049207;28;20636;-38
2023/03/15 03:48:25;;;;;;;;;;;;;;;0.52;70.07;92278.34;5045125;28;20025;-38
2023/03/15 03:50:50;;;;;;;;;;;;;;;0.63;69.88;92267.31;5029017;28;20465;-37
2023/03/15 03:53:16;;;;;;;;;;;;;;;0.53;69.27;92261.53;5028956;28;20032;-37
2023/03/15 03:55:41;;;;;;;;;;;;;;;0.48;71.50;92259.63;5031650;28;19943;-38
2023/03/15 03:58:07;;;;;;;;;;;;;;;0.56;70.54;92246.19;5049105;28;20317;-38
2023/03/15 04:00:32;;;;;;;;;;;;;;;0.84;70.04;92243.09;5043148;28;20407;-38
2023/03/15 04:02:57;;;;;;;;;;;;;;;0.88;69.03;92238.84;5029145;28;19945;-37
2023/03/15 04:05:23;;;;;;;;;;;;;;;0.64;68.71;92245.09;5029192;28;20681;-38
2023/03/15 04:07:48;;;;;;;;;;;;;;;0.48;71.58;92246.03;5028853;28;19941;-37
2023/03/15 04:10:13;;;;;;;;;;;;;;;0.57;69.84;92245.69;5028819;28;20037;-38
2023/03/15 04:12:42;;;;;;;;;;;;;;;0.70;69.73;92248.47;5028861;28;19941;-38
2023/03/15 04:15:07;;;;;;;;;;;;;;;0.76;69.02;92237.50;5029678;28;19936;-38
2023/03/15 04:17:33;;;;;;;;;;;;;;;0.66;69.13;92239.13;5032985;28;19992;-38
2023/03/15 04:20:00;;;;;;;;;;;;;;;0.68;69.51;92239.34;5031730;28;20449;-38
2023/03/15 04:22:26;;;;;;;;;;;;;;;0.38;71.10;92242.22;5013631;28;19939;-38
2023/03/15 04:24:51;;;;;;;;;;;;;;;0.30;70.81;92246.78;5012744;28;19944;-38
2023/03/15 04:27:16;;;;;;;;;;;;;;;0.10;71.29;92249.22;5021524;28;19982;-37
2023/03/15 04:29:42;;;;;;;;;;;;;;;0.00;72.74;92259.69;5032500;28;20016;-37
2023/03/15 04:32:08;;;;;;;;;;;;;;;-0.05;72.35;92258.50;5032515;28;19990;-38
2023/03/15 04:34:37;;;;;;;;;;;;;;;-0.12;72.45;92261.78;5031304;28;19935;-37
2023/03/15 04:37:03;;;;;;;;;;;;;;;-0.19;73.10;92269.75;5032785;28;20005;-37
2023/03/15 04:39:29;;;;;;;;;;;;;;;-0.13;73.60;92270.44;5032313;28;19961;-38
2023/03/15 04:41:54;;;;;;;;;;;;;;;-0.16;72.83;92258.63;5032713;28;19944;-38
2023/03/15 04:44:19;;;;;;;;;;;;;;;-0.14;73.77;92263.53;5032230;28;20323;-37
2023/03/15 04:46:44;;;;;;;;;;;;;;;-0.12;73.92;92258.34;5026236;28;19948;-37
2023/03/15 04:49:10;;;;;;;;;;;;;;;-0.12;72.93;92255.63;5022101;28;19943;-38
2023/03/15 04:51:35;;;;;;;;;;;;;;;-0.02;73.49;92252.06;5032299;28;19939;-37
2023/03/15 04:54:00;;;;;;;;;;;;;;;0.00;73.31;92251.56;5032206;28;20029;-38
2023/03/15 04:56:27;;;;;;;;;;;;;;;0.12;73.14;92247.47;5034318;28;20386;-38
2023/03/15 04:58:52;;;;;;;;;;;;;;;0.24;73.10;92250.78;5031934;28;20011;-38
2023/03/15 05:01:17;;;;;;;;;;;;;;;0.46;72.75;92247.78;5024332;28;20667;-38
2023/03/15 05:03:42;;;;;;;;;;;;;;;0.53;71.07;92253.38;5018834;28;19947;-38
2023/03/15 05:06:08;;;;;;;;;;;;;;;0.38;71.37;92252.34;5011998;28;19948;-38
2023/03/15 05:08:34;;;;;;;;;;;;;;;0.49;70.91;92255.66;5029587;28;19944;-38
2023/03/15 05:11:00;;;;;;;;;;;;;;;0.62;70.09;92247.59;5022858;28;19945;-38
2023/03/15 05:13:25;;;;;;;;;;;;;;;0.83;68.55;92257.91;5029817;28;19966;-38
2023/03/15 05:15:50;;;;;;;;;;;;;;;0.85;68.62;92247.28;5019102;28;20397;-38
2023/03/15 05:18:16;;;;;;;;;;;;;;;0.91;68.28;92240.50;5015484;28;19962;-38
2023/03/15 05:20:41;;;;;;;;;;;;;;;0.73;69.12;92233.13;5028437;28;19977;-38
2023/03/15 05:23:06;;;;;;;;;;;;;;;0.71;69.69;92238.34;5020499;28;19966;-38
2023/03/15 05:25:31;;;;;;;;;;;;;;;0.78;70.25;92245.88;5015183;28;19978;-38
2023/03/15 05:27:57;;;;;;;;;;;;;;;0.88;69.99;92240.81;5024372;28;19942;-38
2023/03/15 05:30:22;;;;;;;;;;;;;;;0.84;69.68;92241.13;5021756;28;20373;-38
2023/03/15 05:32:47;;;;;;;;;;;;;;;1.17;69.23;92242.63;5029069;28;19930;-38
2023/03/15 05:35:13;;;;;;;;;;;;;;;1.11;69.95;92236.50;5025794;28;20417;-38
2023/03/15 05:37:38;;;;;;;;;;;;;;;1.23;68.74;92227.69;5027308;28;20310;-38
2023/03/15 05:40:07;;;;;;;;;;;;;;;1.22;68.58;92233.63;5026109;28;20642;-38
2023/03/15 05:42:32;;;;;;;;;;;;;;;1.36;67.83;92227.72;5028114;28;20566;-38
2023/03/15 05:44:57;;;;;;;;;;;;;;;1.44;68.36;92225.88;5026465;28;19945;-38
2023/03/15 05:47:23;;;;;;;;;;;;;;;1.55;68.72;92230.38;5024638;28;19931;-38
2023/03/15 05:49:48;;;;;;;;;;;;;;;1.89;68.68;92230.53;5027424;28;20039;-38
2023/03/15 05:52:14;;;;;;;;;;;;;;;2.15;68.70;92231.28;5028506;28;19965;-38
2023/03/15 05:54:39;;;;;;;;;;;;;;;2.44;66.31;92236.91;5029808;28;19932;-38
2023/03/15 05:57:04;;;;;;;;;;;;;;;2.63;65.32;92238.25;5034774;28;19950;-38
2023/03/15 05:59:30;;;;;;;;;;;;;;;2.83;63.58;92231.38;5029827;28;19971;-38
2023/03/15 06:01:55;;;;;;;;;;;;;;;3.10;62.23;92229.31;5030148;28;19938;-38
2023/03/15 06:04:20;;;;;;;;;;;;;;;3.03;62.67;92227.97;5029726;28;19939;-38
2023/03/15 06:06:46;;;;;;;;;;;;;;;3.43;62.61;92225.81;5030204;28;19931;-38
2023/03/15 06:09:11;;;;;;;;;;;;;;;3.80;60.65;92228.84;5029425;28;19939;-38
2023/03/15 06:11:36;;;;;;;;;;;;;;;4.52;59.27;92220.75;5030595;28;20049;-38
2023/03/15 06:14:01;;;;;;;;;;;;;;;4.87;59.23;92211.06;5030856;28;20314;-38
2023/03/15 06:16:27;;;;;;;;;;;;;;;5.80;57.54;92201.19;5030794;28;19932;-38
2023/03/15 06:18:52;;;;;;;;;;;;;;;5.92;55.80;92199.53;5030380;28;19959;-38
2023/03/15 06:21:17;;;;;;;;;;;;;;;5.86;55.98;92202.47;5030471;28;20028;-38
2023/03/15 06:23:42;;;;;;;;;;;;;;;5.90;55.56;92207.59;5030534;28;20411;-38
2023/03/15 06:26:08;;;;;;;;;;;;;;;5.74;56.76;92200.63;5028696;28;20015;-38
2023/03/15 06:28:33;;;;;;;;;;;;;;;5.70;54.61;92192.75;5028250;28;19943;-38
2023/03/15 06:31:03;;;;;;;;;;;;;;;5.85;56.41;92198.28;5028579;28;19941;-38
2023/03/15 06:33:28;;;;;;;;;;;;;;;5.94;54.58;92208.69;5035379;28;19957;-38
2023/03/15 06:35:53;;;;;;;;;;;;;;;5.56;53.81;92215.41;5048917;28;20386;-38
2023/03/15 06:38:18;;;;;;;;;;;;;;;6.07;54.14;92222.19;5048494;28;20040;-38
2023/03/15 06:40:44;;;;;;;;;;;;;;;6.51;52.93;92208.97;5049365;28;20545;-38
2023/03/15 06:43:13;;;;;;;;;;;;;;;6.89;51.04;92209.56;5049930;28;20023;-38
2023/03/15 06:45:39;;;;;;;;;;;;;;;7.69;47.99;92208.78;5049767;28;20396;-38
2023/03/15 06:48:04;;;;;;;;;;;;;;;8.67;44.81;92213.44;5048650;28;19962;-38
2023/03/15 06:50:29;;;;;;;;;;;;;;;9.71;41.88;92221.72;5030005;28;19939;-38
2023/03/15 06:52:56;;;;;;;;;;;;;;;9.97;40.55;92217.47;5030015;28;19939;-38
2023/03/15 06:55:21;;;;;;;;;;;;;;;10.23;39.32;92225.00;5029881;28;19940;-38
2023/03/15 06:57:47;;;;;;;;;;;;;;;11.12;37.26;92221.22;5049635;28;20476;-38
2023/03/15 07:00:12;;;;;;;;;;;;;;;9.68;38.56;92222.84;5049193;28;19968;-38
2023/03/15 07:02:38;;;;;;;;;;;;;;;9.08;40.33;92215.38;5049288;28;19957;-38
2023/03/15 07:05:03;;;;;;;;;;;;;;;10.86;37.43;92213.06;5049707;28;19986;-38
2023/03/15 07:07:29;;;;;;;;;;;;;;;13.14;32.88;92199.03;5035952;28;19938;-38
2023/03/15 07:09:54;;;;;;;;;;;;;;;13.05;32.09;92194.28;5029595;28;19944;-38
2023/03/15 07:12:19;;;;;;;;;;;;;;;14.07;31.80;92198.00;5029432;28;19932;-38
2023/03/15 07:14:45;;;;;;;;;;;;;;;15.42;29.31;92200.34;5029281;28;19984;-39
2023/03/15 07:17:11;;;;;;;;;;;;;;;13.59;31.77;92204.03;5029543;28;20065;-38
2023/03/15 07:19:36;;;;;;;;;;;;;;;13.48;30.93;92192.91;5029183;28;20405;-38
2023/03/15 07:22:01;;;;;;;;;;;;;;;13.25;31.47;92184.50;5029492;28;20450;-38
2023/03/15 07:24:27;;;;;;;;;;;;;;;14.18;29.82;92186.19;5029499;28;19934;-38
2023/03/15 07:26:55;;;;;;;;;;;;;;;14.06;30.44;92190.97;5029061;28;19929;-38
2023/03/15 07:29:20;;;;;;;;;;;;;;;13.96;31.12;92184.09;5029499;28;19933;-38
2023/03/15 07:31:45;;;;;;;;;;;;;;;14.83;30.12;92187.25;5029007;28;19940;-38
2023/03/15 09:58:42;;;;;;;;;;;;;;;17.27;26.81;92123.75;5050535;28;19971;-38
2023/03/15 10:01:09;;;;;;;;;;;;;;;16.35;28.25;92110.75;5066100;28;20358;-38
2023/03/15 10:03:38;;;;;;;;;;;;;;;14.74;29.79;92118.66;5066047;28;19933;-38
2023/03/15 10:06:21;;;;;;;;;;;;;;;14.47;30.31;92129.59;5064315;28;19940;-38
2023/03/15 10:08:47;;;;;;;;;;;;;;;15.10;30.25;92134.59;5030692;28;19943;-38
2023/03/15 10:11:20;;;;;;;;;;;;;;;15.62;29.34;92134.75;5045805;28;20343;-38
2023/03/15 10:13:48;;;;;;;;;;;;;;;16.27;29.02;92119.41;5044884;28;19932;-38
2023/03/15 10:16:14;;;;;;;;;;;;;;;14.51;30.58;92124.25;5030320;28;19933;-38
2023/03/15 10:18:52;;;;;;;;;;;;;;;14.42;30.25;92126.53;5030015;28;19967;-38
2023/03/15 10:21:23;;;;;;;;;;;;;;;13.74;32.11;92132.78;5045957;28;19942;-38
2023/03/15 10:23:50;;;;;;;;;;;;;;;13.92;31.59;92120.03;5030577;28;20012;-38
2023/03/15 10:26:17;;;;;;;;;;;;;;;14.16;31.58;92127.03;5045614;28;20479;-38
2023/03/15 10:28:42;;;;;;;;;;;;;;;14.17;31.38;92118.09;5045459;28;20700;-38
2023/03/15 10:31:13;;;;;;;;;;;;;;;14.15;31.98;92120.03;5029835;28;19943;-38
2023/03/15 10:33:38;;;;;;;;;;;;;;;14.48;30.96;92106.75;5038259;28;20046;-38
2023/03/15 10:36:15;;;;;;;;;;;;;;;14.83;30.26;92090.72;5050205;28;20439;-38
2023/03/15 10:38:41;;;;;;;;;;;;;;;15.08;30.79;92096.28;5049596;28;19968;-38
2023/03/15 10:41:07;;;;;;;;;;;;;;;15.26;29.31;92088.25;5049636;28;20481;-38
2023/03/15 10:43:35;;;;;;;;;;;;;;;15.42;29.45;92082.84;5049931;28;20020;-38
2023/03/15 10:46:02;;;;;;;;;;;;;;;15.04;29.27;92082.19;5049603;28;19934;-38
2023/03/15 10:48:28;;;;;;;;;;;;;;;15.66;29.70;92067.47;5045650;28;19961;-38
2023/03/15 10:50:53;;;;;;;;;;;;;;;16.69;28.14;92059.56;5029664;28;20438;-38
2023/03/15 10:53:24;;;;;;;;;;;;;;;17.85;28.82;92060.88;5029912;28;19944;-38
2023/03/15 10:55:53;;;;;;;;;;;;;;;18.54;26.73;92070.22;5033135;28;19931;-38
2023/03/15 10:58:51;;;;;;;;;;;;;;;18.77;24.94;92078.19;5064414;28;19968;-39
2023/03/15 11:01:43;;;;;;;;;;;;;;;17.86;24.77;92073.50;5037041;28;20410;-38
2023/03/15 11:04:13;;;;;;;;;;;;;;;15.46;27.87;92075.47;5048213;28;19947;-38
2023/03/15 11:06:45;;;;;;;;;;;;;;;15.02;28.72;92082.06;5042591;28;20004;-38
2023/03/15 11:09:11;;;;;;;;;;;;;;;14.46;29.66;92078.88;5029660;28;20051;-38
2023/03/15 11:11:52;;;;;;;;;;;;;;;13.86;30.80;92078.06;5029681;28;19991;-38
2023/03/15 11:14:17;;;;;;;;;;;;;;;13.34;32.68;92070.75;5029626;28;20084;-38
2023/03/15 11:16:46;;;;;;;;;;;;;;;12.85;32.86;92066.25;5029271;28;20456;-38
2023/03/15 11:19:12;;;;;;;;;;;;;;;13.26;31.97;92070.28;5029105;28;19957;-38
2023/03/15 11:21:37;;;;;;;;;;;;;;;13.29;32.03;92068.34;5029287;28;19945;-38
2023/03/15 11:24:04;;;;;;;;;;;;;;;12.90;32.79;92073.53;5027962;28;19945;-38
2023/03/15 11:26:33;;;;;;;;;;;;;;;13.18;32.48;92072.53;5029364;28;20025;-38
2023/03/15 11:29:00;;;;;;;;;;;;;;;13.46;32.41;92065.97;5044535;28;19941;-38
2023/03/15 11:31:27;;;;;;;;;;;;;;;13.22;34.78;92058.22;5044248;28;20411;-38
2023/03/15 11:33:52;;;;;;;;;;;;;;;13.20;32.57;92066.41;5039230;28;19956;-38
2023/03/15 11:36:18;;;;;;;;;;;;;;;13.34;32.15;92064.50;5049357;28;20488;-38
2023/03/15 11:38:44;;;;;;;;;;;;;;;12.73;34.22;92066.22;5064286;28;19961;-38
2023/03/15 11:41:29;;;;;;;;;;;;;;;13.00;33.76;92065.84;5064563;28;19946;-38
2023/03/15 11:44:06;;;;;;;;;;;;;;;12.23;34.56;92048.41;5048928;28;20001;-38
2023/03/15 11:46:33;;;;;;;;;;;;;;;11.95;35.13;92066.66;5048819;28;19937;-38
2023/03/15 11:49:08;;;;;;;;;;;;;;;12.24;35.25;92067.19;5055801;28;19939;-38
2023/03/15 11:51:34;;;;;;;;;;;;;;;12.52;34.86;92066.25;5028986;28;19942;-38
2023/03/15 11:54:05;;;;;;;;;;;;;;;12.52;34.35;92071.06;5044264;28;19936;-38
2023/03/15 11:56:50;;;;;;;;;;;;;;;12.27;34.61;92076.34;5053513;28;20599;-38
2023/03/15 11:59:17;;;;;;;;;;;;;;;12.05;35.03;92067.31;5044560;28;20346;-38
2023/03/15 12:01:48;;;;;;;;;;;;;;;12.07;34.74;92073.72;5064288;28;19938;-38
2023/03/15 12:04:27;;;;;;;;;;;;;;;11.63;36.11;92062.41;5032955;28;19944;-38
2023/03/15 12:06:53;;;;;;;;;;;;;;;11.63;36.07;92062.41;5028733;28;19933;-38
2023/03/15 12:09:31;;;;;;;;;;;;;;;11.59;35.76;92064.91;5029046;28;19937;-38
2023/03/15 12:12:00;;;;;;;;;;;;;;;11.50;37.02;92057.38;5029149;28;19982;-38
2023/03/15 12:14:29;;;;;;;;;;;;;;;11.37;38.33;92064.09;5029002;28;20376;-38
2023/03/15 12:17:17;;;;;;;;;;;;;;;11.72;35.89;92067.19;5029105;28;19938;-38
2023/03/15 12:19:43;;;;;;;;;;;;;;;11.62;36.51;92055.44;5028657;28;19949;-38
2023/03/15 12:22:13;;;;;;;;;;;;;;;11.59;36.72;92056.59;5029204;28;19938;-38
2023/03/15 12:24:38;;;;;;;;;;;;;;;11.70;36.30;92058.03;5044208;28;19934;-38
2023/03/15 12:27:16;;;;;;;;;;;;;;;11.80;37.58;92053.19;5029132;28;19939;-38
2023/03/15 12:29:42;;;;;;;;;;;;;;;11.64;39.67;92057.59;5044555;28;19958;-38
2023/03/15 12:32:12;;;;;;;;;;;;;;;11.71;37.16;92067.78;5028734;28;19936;-38
2023/03/15 12:34:53;;;;;;;;;;;;;;;11.66;38.43;92052.94;5060311;28;19934;-38
2023/03/15 12:37:20;;;;;;;;;;;;;;;11.38;40.80;92051.75;5067105;28;20313;-38
2023/03/15 12:39:58;;;;;;;;;;;;;;;11.57;40.72;92053.72;5067678;28;19954;-38
2023/03/15 12:42:30;;;;;;;;;;;;;;;11.74;41.96;92059.03;5052341;28;20744;-38
2023/03/15 12:45:15;;;;;;;;;;;;;;;11.62;42.05;92072.03;5052441;28;19989;-38
2023/03/15 12:47:43;;;;;;;;;;;;;;;11.64;41.68;92080.44;5052057;28;19935;-38
2023/03/15 12:50:27;;;;;;;;;;;;;;;11.18;44.36;92074.50;5034326;28;19981;-38
2023/03/15 12:52:54;;;;;;;;;;;;;;;10.83;47.33;92070.66;5032110;28;19934;-38
2023/03/15 12:55:19;;;;;;;;;;;;;;;10.74;49.08;92071.41;5047161;28;20061;-37
2023/03/15 12:57:48;;;;;;;;;;;;;;;10.79;47.68;92067.59;5066645;28;20064;-38
2023/03/15 13:00:18;;;;;;;;;;;;;;;10.78;47.00;92066.88;5053312;28;20056;-38
2023/03/15 13:02:50;;;;;;;;;;;;;;;10.47;46.93;92058.50;5047531;28;19930;-38
2023/03/15 13:05:21;;;;;;;;;;;;;;;10.55;47.22;92061.81;5031752;28;20036;-38
2023/03/15 13:07:47;;;;;;;;;;;;;;;10.57;48.16;92061.97;5031686;28;20536;-38
2023/03/15 13:10:18;;;;;;;;;;;;;;;10.62;47.37;92058.19;5031922;28;19938;-38
2023/03/15 13:12:43;;;;;;;;;;;;;;;10.47;47.80;92058.50;5047302;28;19934;-38
2023/03/15 13:15:13;;;;;;;;;;;;;;;10.67;46.99;92056.44;5031567;28;19941;-38
2023/03/15 13:17:41;;;;;;;;;;;;;;;10.71;46.57;92058.75;5031617;28;19935;-38
2023/03/15 13:20:19;;;;;;;;;;;;;;;10.78;46.54;92052.34;5047177;28;19953;-38
2023/03/15 13:22:47;;;;;;;;;;;;;;;11.09;47.34;92055.91;5031347;28;19936;-38
2023/03/15 13:25:13;;;;;;;;;;;;;;;10.98;46.03;92056.53;5031725;28;19937;-38
2023/03/15 13:27:57;;;;;;;;;;;;;;;11.01;45.92;92060.88;5031545;28;20396;-38
2023/03/15 13:30:22;;;;;;;;;;;;;;;10.92;45.80;92053.34;5031332;28;19930;-38
2023/03/15 13:32:48;;;;;;;;;;;;;;;10.92;46.09;92051.31;5032276;28;19991;-38
2023/03/15 13:35:13;;;;;;;;;;;;;;;10.59;46.17;92044.81;5051130;28;20452;-38
2023/03/15 13:37:43;;;;;;;;;;;;;;;10.65;46.02;92051.47;5051372;28;20002;-38
2023/03/15 13:40:12;;;;;;;;;;;;;;;10.47;45.90;92055.00;5065676;28;19963;-38
2023/03/15 13:42:38;;;;;;;;;;;;;;;10.57;46.62;92052.94;5050903;28;19932;-38
2023/03/15 13:45:14;;;;;;;;;;;;;;;10.56;46.62;92057.75;5050808;28;19942;-38
2023/03/15 13:47:43;;;;;;;;;;;;;;;10.57;46.76;92063.97;5049986;28;19958;-38
2023/03/15 13:50:13;;;;;;;;;;;;;;;10.22;47.13;92052.50;5033164;28;19962;-38
2023/03/15 13:52:39;;;;;;;;;;;;;;;10.45;47.20;92061.09;5031211;28;19985;-38
2023/03/15 13:55:05;;;;;;;;;;;;;;;10.61;46.88;92051.19;5031036;28;19943;-38
2023/03/15 13:57:31;;;;;;;;;;;;;;;10.24;47.40;92044.41;5030710;28;20340;-38
2023/03/15 13:59:59;;;;;;;;;;;;;;;10.00;47.51;92042.63;5046457;28;19981;-38
2023/03/15 14:02:27;;;;;;;;;;;;;;;10.16;47.49;92041.06;5031097;28;19943;-38
2023/03/15 14:05:00;;;;;;;;;;;;;;;9.95;48.15;92027.09;5030939;28;20330;-38
2023/03/15 14:07:26;;;;;;;;;;;;;;;10.29;47.70;92029.59;5030947;28;19932;-38
2023/03/15 14:10:11;;;;;;;;;;;;;;;10.38;46.75;92042.66;5030854;28;19937;-38
2023/03/15 14:12:38;;;;;;;;;;;;;;;10.68;46.68;92037.84;5026016;28;20349;-38
2023/03/15 14:15:13;;;;;;;;;;;;;;;10.80;46.17;92035.94;5030779;28;19968;-38
2023/03/15 14:17:49;;;;;;;;;;;;;;;10.90;46.49;92039.38;5030776;28;20318;-38
2023/03/15 14:20:15;;;;;;;;;;;;;;;11.19;45.48;92040.78;5030318;28;20048;-38
2023/03/15 14:22:40;;;;;;;;;;;;;;;11.20;45.90;92039.44;5030520;28;20039;-38
2023/03/15 14:25:18;;;;;;;;;;;;;;;10.98;46.44;92043.44;5030611;28;20027;-38
2023/03/15 14:27:43;;;;;;;;;;;;;;;11.00;46.39;92042.88;5045938;28;20390;-38
2023/03/15 14:30:17;;;;;;;;;;;;;;;11.08;46.69;92048.94;5030171;28;19943;-38
2023/03/15 14:32:50;;;;;;;;;;;;;;;10.98;46.84;92042.72;5029770;28;19998;-38
2023/03/15 14:35:21;;;;;;;;;;;;;;;10.83;47.50;92035.47;5030347;28;19968;-38
2023/03/15 14:37:47;;;;;;;;;;;;;;;10.86;47.26;92039.09;5030086;28;20105;-38
2023/03/15 14:40:12;;;;;;;;;;;;;;;10.50;48.60;92043.50;5030058;28;20058;-38
2023/03/15 14:42:38;;;;;;;;;;;;;;;10.66;47.94;92043.94;5030179;28;20384;-38
2023/03/15 14:45:03;;;;;;;;;;;;;;;10.48;48.28;92035.09;5030153;28;19933;-38
2023/03/15 14:47:29;;;;;;;;;;;;;;;10.34;48.93;92036.84;5030202;28;20402;-38
2023/03/15 14:49:54;;;;;;;;;;;;;;;10.16;49.56;92041.06;5029717;28;19943;-38
2023/03/15 14:52:19;;;;;;;;;;;;;;;10.01;50.66;92035.78;5029922;28;19944;-37
2023/03/15 14:54:45;;;;;;;;;;;;;;;10.07;50.51;92043.78;5045298;28;20402;-38
2023/03/15 14:57:11;;;;;;;;;;;;;;;10.27;49.59;92037.72;5059626;28;20073;-38
2023/03/15 14:59:36;;;;;;;;;;;;;;;10.33;49.15;92029.88;5049639;28;20053;-38
2023/03/15 15:02:01;;;;;;;;;;;;;;;10.01;50.83;92030.28;5049582;28;19935;-38
2023/03/15 15:04:29;;;;;;;;;;;;;;;10.05;51.15;92038.13;5049539;28;19930;-38
2023/03/15 15:06:54;;;;;;;;;;;;;;;9.91;51.38;92043.34;5056159;28;20035;-38
2023/03/15 15:09:23;;;;;;;;;;;;;;;9.88;51.54;92041.72;5045262;28;20026;-38
2023/03/15 15:11:52;;;;;;;;;;;;;;;9.89;52.26;92043.19;5029823;28;20329;-38
2023/03/15 15:14:17;;;;;;;;;;;;;;;9.82;51.87;92052.31;5029823;28;20394;-38
2023/03/15 15:16:43;;;;;;;;;;;;;;;9.93;51.12;92055.25;5029621;28;19971;-38
2023/03/15 15:19:09;;;;;;;;;;;;;;;10.03;50.89;92055.22;5029360;28;19958;-38